Time,TemperatureF,DewpointF,PressureIn,WindDirection,WindDirectionDegrees,WindSpeedMPH,WindSpeedGustMPH,Humidity,HourlyPrecipIn,Conditions,Clouds,dailyrainin,SoftwareType,DateUTC
2013-02-04 00:02:00,28.0,21.0,30.03,ESE,111,0.0,5.0,74,0.00,,,0.13,,2013-02-04 06:02:00,
2013-02-04 00:11:00,28.0,21.0,30.03,ESE,111,0.0,5.0,74,0.00,,,0.13,,2013-02-04 06:11:00,
2013-02-04 00:21:00,28.0,21.0,30.03,SE,144,1.0,4.0,74,0.00,,,0.13,,2013-02-04 06:21:00,
2013-02-04 00:32:00,27.0,20.0,30.03,ESE,103,0.0,4.0,75,0.00,,,0.13,,2013-02-04 06:32:00,
2013-02-04 00:41:00,27.0,20.0,30.03,ESE,103,0.0,4.0,75,0.00,,,0.13,,2013-02-04 06:41:00,
2013-02-04 00:51:00,27.0,20.0,30.02,South,179,1.0,3.0,75,0.00,,,0.13,,2013-02-04 06:51:00,
2013-02-04 01:02:00,27.0,20.0,30.01,SSE,160,1.0,3.0,76,0.00,,,0.13,,2013-02-04 07:02:00,
2013-02-04 01:11:00,27.0,20.0,30.01,SSE,160,1.0,3.0,76,0.00,,,0.13,,2013-02-04 07:11:00,
2013-02-04 01:21:00,27.0,20.0,30.00,SSE,159,1.0,4.0,76,0.00,,,0.13,,2013-02-04 07:21:00,
2013-02-04 01:31:00,27.0,21.0,29.99,SSE,166,1.0,4.0,77,0.00,,,0.13,,2013-02-04 07:31:00,
2013-02-04 01:42:00,27.0,21.0,29.99,SSE,166,1.0,4.0,77,0.00,,,0.13,,2013-02-04 07:42:00,
2013-02-04 01:52:00,27.0,21.0,29.98,SSE,155,0.0,5.0,77,0.00,,,0.13,,2013-02-04 07:52:00,
2013-02-04 02:01:00,27.0,21.0,29.98,SE,146,1.0,5.0,78,0.00,,,0.13,,2013-02-04 08:01:00,
2013-02-04 02:11:00,27.0,21.0,29.98,SE,146,1.0,5.0,78,0.00,,,0.13,,2013-02-04 08:11:00,
2013-02-04 02:21:00,27.0,21.0,29.98,SSE,165,1.0,4.0,78,0.00,,,0.13,,2013-02-04 08:21:00,
2013-02-04 02:31:00,27.0,21.0,29.97,South,188,0.0,4.0,78,0.00,,,0.13,,2013-02-04 08:31:00,
2013-02-04 02:42:00,27.0,21.0,29.97,South,188,0.0,4.0,78,0.00,,,0.13,,2013-02-04 08:42:00,
2013-02-04 02:52:00,27.0,21.0,29.96,SSE,155,1.0,4.0,78,0.00,,,0.13,,2013-02-04 08:52:00,
2013-02-04 03:02:00,27.0,21.0,29.96,SSE,154,1.0,3.0,78,0.00,,,0.13,,2013-02-04 09:02:00,
2013-02-04 03:11:00,27.0,21.0,29.96,SSE,154,1.0,3.0,78,0.00,,,0.13,,2013-02-04 09:11:00,
2013-02-04 03:21:00,28.0,22.0,29.96,SSE,150,2.0,4.0,78,0.00,,,0.13,,2013-02-04 09:21:00,
2013-02-04 03:31:00,28.0,22.0,29.95,SSW,195,2.0,4.0,78,0.00,,,0.13,,2013-02-04 09:31:00,
2013-02-04 03:41:00,28.0,22.0,29.95,SSW,195,2.0,4.0,78,0.00,,,0.13,,2013-02-04 09:41:00,
2013-02-04 03:52:00,28.0,22.0,29.93,SE,133,0.0,4.0,78,0.00,,,0.13,,2013-02-04 09:52:00,
2013-02-04 04:01:00,28.0,22.0,29.92,SW,228,0.0,4.0,78,0.00,,,0.13,,2013-02-04 10:01:00,
2013-02-04 04:11:00,28.0,22.0,29.92,SW,228,0.0,4.0,78,0.00,,,0.13,,2013-02-04 10:11:00,
2013-02-04 04:21:00,29.0,23.0,29.91,South,177,0.0,3.0,78,0.00,,,0.13,,2013-02-04 10:21:00,
2013-02-04 04:32:00,29.0,23.0,29.91,SSE,150,0.0,3.0,78,0.00,,,0.13,,2013-02-04 10:32:00,
2013-02-04 04:41:00,29.0,23.0,29.91,SSE,150,0.0,3.0,78,0.00,,,0.13,,2013-02-04 10:41:00,
2013-02-04 04:52:00,29.0,23.0,29.90,SSE,151,0.0,3.0,77,0.00,,,0.13,,2013-02-04 10:52:00,
2013-02-04 05:01:00,30.0,24.0,29.89,SSE,158,1.0,4.0,77,0.00,,,0.13,,2013-02-04 11:01:00,
2013-02-04 05:11:00,30.0,24.0,29.89,SSE,158,1.0,4.0,77,0.00,,,0.13,,2013-02-04 11:11:00,
2013-02-04 05:22:00,30.0,24.0,29.89,SSE,165,1.0,3.0,77,0.00,,,0.13,,2013-02-04 11:22:00,
2013-02-04 05:32:00,31.0,24.0,29.89,South,175,1.0,4.0,76,0.00,,,0.13,,2013-02-04 11:32:00,
2013-02-04 05:42:00,31.0,24.0,29.89,South,175,1.0,4.0,76,0.00,,,0.13,,2013-02-04 11:42:00,
2013-02-04 05:52:00,31.0,24.0,29.88,South,174,0.0,2.0,76,0.00,,,0.13,,2013-02-04 11:52:00,
2013-02-04 06:02:00,31.0,24.0,29.88,South,174,0.0,3.0,76,0.00,,,0.13,,2013-02-04 12:02:00,
2013-02-04 06:12:00,31.0,24.0,29.88,South,174,0.0,3.0,76,0.00,,,0.13,,2013-02-04 12:12:00,
2013-02-04 06:22:00,32.0,25.0,29.88,SSE,165,0.0,2.0,76,0.00,,,0.13,,2013-02-04 12:22:00,
2013-02-04 06:32:00,32.0,25.0,29.87,SSE,165,0.0,3.0,76,0.00,,,0.13,,2013-02-04 12:32:00,
2013-02-04 06:42:00,32.0,25.0,29.87,SSE,165,0.0,3.0,76,0.00,,,0.13,,2013-02-04 12:42:00,
2013-02-04 06:53:00,32.0,25.0,29.86,SSE,159,0.0,3.0,75,0.00,,,0.13,,2013-02-04 12:53:00,
2013-02-04 07:02:00,32.0,25.0,29.86,SSE,163,1.0,3.0,76,0.00,,,0.13,,2013-02-04 13:02:00,
2013-02-04 07:12:00,33.0,26.0,29.86,SSE,157,0.0,3.0,74,0.00,,,0.13,,2013-02-04 13:12:00,
2013-02-04 07:21:00,33.0,26.0,29.86,SSE,157,0.0,3.0,74,0.00,,,0.13,,2013-02-04 13:21:00,
2013-02-04 07:33:00,33.0,26.0,29.85,SSE,157,1.0,2.0,74,0.00,,,0.13,,2013-02-04 13:33:00,
2013-02-04 07:42:00,33.0,26.0,29.85,SSE,157,1.0,2.0,74,0.00,,,0.13,,2013-02-04 13:42:00,
2013-02-04 07:52:00,34.0,27.0,29.85,SSE,157,0.0,2.0,74,0.00,,,0.13,,2013-02-04 13:52:00,
2013-02-04 08:03:00,34.0,26.0,29.85,SSE,157,0.0,1.0,73,0.00,,,0.13,,2013-02-04 14:03:00,
2013-02-04 08:11:00,34.0,26.0,29.85,SSE,157,0.0,1.0,73,0.00,,,0.13,,2013-02-04 14:11:00,
2013-02-04 08:22:00,35.0,28.0,29.86,West,281,0.0,3.0,74,0.00,,,0.13,,2013-02-04 14:22:00,
2013-02-04 08:32:00,35.0,28.0,29.88,WNW,286,1.0,2.0,74,0.00,,,0.13,,2013-02-04 14:32:00,
2013-02-04 08:42:00,35.0,28.0,29.88,WNW,286,1.0,2.0,74,0.00,,,0.13,,2013-02-04 14:42:00,
2013-02-04 08:52:00,36.0,28.0,29.88,WNW,286,0.0,1.0,73,0.00,,,0.13,,2013-02-04 14:52:00,
2013-02-04 09:03:00,36.0,28.0,29.87,WNW,286,0.0,1.0,73,0.00,,,0.13,,2013-02-04 15:03:00,
2013-02-04 09:12:00,36.0,28.0,29.87,WNW,286,0.0,1.0,73,0.00,,,0.13,,2013-02-04 15:12:00,
2013-02-04 09:23:00,37.0,29.0,29.87,WNW,286,0.0,1.0,72,0.00,,,0.13,,2013-02-04 15:23:00,
2013-02-04 09:33:00,38.0,28.0,29.87,WNW,286,0.0,1.0,68,0.00,,,0.13,,2013-02-04 15:33:00,
2013-02-04 09:43:00,38.0,28.0,29.87,WNW,286,0.0,1.0,68,0.00,,,0.13,,2013-02-04 15:43:00,
2013-02-04 09:53:00,39.0,29.0,29.87,WNW,286,0.0,1.0,66,0.00,,,0.13,,2013-02-04 15:53:00,
2013-02-04 10:02:00,41.0,29.0,29.87,WSW,239,0.0,1.0,63,0.00,,,0.13,,2013-02-04 16:02:00,
2013-02-04 10:11:00,41.0,29.0,29.87,WSW,239,0.0,1.0,63,0.00,,,0.13,,2013-02-04 16:11:00,
2013-02-04 10:22:00,42.0,29.0,29.86,SW,226,1.0,4.0,60,0.01,,,0.13,,2013-02-04 16:22:00,
2013-02-04 10:33:00,43.0,30.0,29.86,SW,214,0.0,3.0,59,0.01,,,0.13,,2013-02-04 16:33:00,
2013-02-04 10:42:00,43.0,30.0,29.86,SW,214,0.0,3.0,59,0.01,,,0.13,,2013-02-04 16:42:00,
2013-02-04 10:52:00,45.0,31.0,29.86,SW,214,0.0,1.0,57,0.01,,,0.13,,2013-02-04 16:52:00,
2013-02-04 11:02:00,48.0,32.0,29.86,SSW,210,1.0,5.0,53,0.02,,,0.14,,2013-02-04 17:02:00,
2013-02-04 11:11:00,48.0,32.0,29.86,SSW,210,1.0,5.0,53,0.02,,,0.14,,2013-02-04 17:11:00,
2013-02-04 11:21:00,50.0,32.0,29.85,SW,227,1.0,6.0,49,0.01,,,0.14,,2013-02-04 17:21:00,
2013-02-04 11:32:00,50.0,32.0,29.85,SW,227,1.0,6.0,49,0.01,,,0.14,,2013-02-04 17:32:00,
2013-02-04 11:42:00,50.0,32.0,29.85,SW,227,1.0,6.0,49,0.01,,,0.14,,2013-02-04 17:42:00,
2013-02-04 11:52:00,51.0,33.0,29.83,SSW,210,1.0,5.0,49,0.01,,,0.14,,2013-02-04 17:52:00,
2013-02-04 12:03:00,53.0,33.0,29.83,WSW,250,2.0,8.0,47,0.00,,,0.14,,2013-02-04 18:03:00,
2013-02-04 12:11:00,53.0,33.0,29.83,WSW,250,2.0,8.0,47,0.00,,,0.14,,2013-02-04 18:11:00,
2013-02-04 12:22:00,53.0,33.0,29.83,WSW,250,2.0,8.0,47,0.00,,,0.14,,2013-02-04 18:22:00,
2013-02-04 12:32:00,55.0,33.0,29.82,West,269,6.0,14.0,44,0.00,,,0.13,,2013-02-04 18:32:00,
2013-02-04 12:42:00,55.0,33.0,29.82,West,269,6.0,14.0,44,0.00,,,0.13,,2013-02-04 18:42:00,
2013-02-04 12:52:00,55.0,33.0,29.82,WSW,254,5.0,12.0,43,0.00,,,0.13,,2013-02-04 18:52:00,
2013-02-04 13:02:00,56.0,34.0,29.81,WNW,298,7.0,17.0,43,0.00,,,0.13,,2013-02-04 19:02:00,
2013-02-04 13:11:00,56.0,34.0,29.81,WNW,298,7.0,17.0,43,0.00,,,0.13,,2013-02-04 19:11:00,
2013-02-04 13:22:00,56.0,34.0,29.80,WSW,251,5.0,15.0,43,0.00,,,0.09,,2013-02-04 19:22:00,
2013-02-04 13:31:00,57.0,34.0,29.80,WNW,282,7.0,16.0,42,0.00,,,0.09,,2013-02-04 19:31:00,
2013-02-04 13:42:00,57.0,34.0,29.80,WNW,282,7.0,16.0,42,0.00,,,0.09,,2013-02-04 19:42:00,
2013-02-04 13:52:00,57.0,36.0,29.80,NNW,342,7.0,12.0,46,0.00,,,0.09,,2013-02-04 19:52:00,
2013-02-04 14:02:00,57.0,36.0,29.80,NNW,346,6.0,10.0,46,0.00,,,0.09,,2013-02-04 20:02:00,
2013-02-04 14:12:00,57.0,36.0,29.80,NNW,346,6.0,10.0,46,0.00,,,0.09,,2013-02-04 20:12:00,
2013-02-04 14:21:00,57.0,36.0,29.80,NNW,346,6.0,10.0,46,0.00,,,0.09,,2013-02-04 20:21:00,
2013-02-04 14:32:00,55.0,37.0,29.81,NNW,348,7.0,16.0,50,0.00,,,0.07,,2013-02-04 20:32:00,
2013-02-04 14:42:00,55.0,37.0,29.81,NNW,348,7.0,16.0,50,0.00,,,0.07,,2013-02-04 20:42:00,
2013-02-04 14:52:00,54.0,36.0,29.81,West,270,8.0,16.0,51,0.00,,,0.07,,2013-02-04 20:52:00,
2013-02-04 15:02:00,54.0,36.0,29.81,NNW,338,7.0,15.0,51,0.00,,,0.07,,2013-02-04 21:02:00,
2013-02-04 15:11:00,54.0,36.0,29.81,NNW,338,7.0,15.0,51,0.00,,,0.07,,2013-02-04 21:11:00,
2013-02-04 15:22:00,53.0,36.0,29.82,WNW,303,7.0,16.0,52,0.00,,,0.04,,2013-02-04 21:22:00,
2013-02-04 15:31:00,53.0,36.0,29.82,NNW,328,7.0,15.0,52,0.00,,,0.04,,2013-02-04 21:31:00,
2013-02-04 15:42:00,53.0,36.0,29.82,NNW,328,7.0,15.0,52,0.00,,,0.04,,2013-02-04 21:42:00,
2013-02-04 15:52:00,53.0,35.0,29.83,NW,325,7.0,17.0,51,0.00,,,0.04,,2013-02-04 21:52:00,
2013-02-04 16:02:00,52.0,34.0,29.83,WNW,302,6.0,10.0,50,0.00,,,0.04,,2013-02-04 22:02:00,
2013-02-04 16:12:00,52.0,34.0,29.83,WNW,302,6.0,10.0,50,0.00,,,0.04,,2013-02-04 22:12:00,
2013-02-04 16:21:00,52.0,34.0,29.83,WNW,302,6.0,10.0,50,0.00,,,0.04,,2013-02-04 22:21:00,
2013-02-04 16:32:00,50.0,35.0,29.83,NNE,13,5.0,12.0,56,0.00,,,0.03,,2013-02-04 22:32:00,
2013-02-04 16:42:00,50.0,35.0,29.83,NNE,13,5.0,12.0,56,0.00,,,0.03,,2013-02-04 22:42:00,
2013-02-04 16:52:00,49.0,34.0,29.84,NW,324,6.0,14.0,56,0.00,,,0.03,,2013-02-04 22:52:00,
2013-02-04 17:01:00,48.0,34.0,29.85,NW,309,4.0,14.0,57,0.00,,,0.03,,2013-02-04 23:01:00,
2013-02-04 17:11:00,48.0,34.0,29.85,NW,309,4.0,14.0,57,0.00,,,0.03,,2013-02-04 23:11:00,
2013-02-04 17:21:00,47.0,34.0,29.85,North,355,4.0,10.0,60,0.00,,,0.02,,2013-02-04 23:21:00,
2013-02-04 17:32:00,45.0,33.0,29.86,NNW,343,3.0,11.0,62,0.00,,,0.02,,2013-02-04 23:32:00,
2013-02-04 17:42:00,45.0,33.0,29.86,NNW,343,3.0,11.0,62,0.00,,,0.02,,2013-02-04 23:42:00,
2013-02-04 17:52:00,44.0,33.0,29.88,NNW,339,3.0,11.0,65,0.00,,,0.02,,2013-02-04 23:52:00,
2013-02-04 18:01:00,43.0,32.0,29.88,NW,304,7.0,11.0,66,0.00,,,0.02,,2013-02-05 00:01:00,
2013-02-04 18:11:00,43.0,32.0,29.88,NW,304,7.0,11.0,66,0.00,,,0.02,,2013-02-05 00:11:00,
2013-02-04 18:22:00,42.0,33.0,29.90,NNE,32,4.0,10.0,69,0.00,,,0.02,,2013-02-05 00:22:00,
2013-02-04 18:31:00,40.0,31.0,29.91,NNW,345,5.0,13.0,70,0.00,,,0.02,,2013-02-05 00:31:00,
2013-02-04 18:42:00,40.0,31.0,29.91,NNW,345,5.0,13.0,70,0.00,,,0.02,,2013-02-05 00:42:00,
2013-02-04 18:52:00,39.0,31.0,29.91,North,355,5.0,12.0,72,0.00,,,0.02,,2013-02-05 00:52:00,
2013-02-04 19:01:00,38.0,30.0,29.92,NW,325,4.0,11.0,73,0.00,,,0.02,,2013-02-05 01:01:00,
2013-02-04 19:11:00,38.0,30.0,29.92,NW,325,4.0,11.0,73,0.00,,,0.02,,2013-02-05 01:11:00,
2013-02-04 19:22:00,37.0,29.0,29.92,North,355,3.0,8.0,73,0.00,,,0.02,,2013-02-05 01:22:00,
2013-02-04 19:32:00,37.0,30.0,29.92,NNW,333,2.0,11.0,75,0.00,,,0.02,,2013-02-05 01:32:00,
2013-02-04 19:42:00,37.0,30.0,29.92,NNW,333,2.0,11.0,75,0.00,,,0.02,,2013-02-05 01:42:00,
2013-02-04 19:52:00,37.0,30.0,29.92,NNW,333,2.0,11.0,75,0.00,,,0.02,,2013-02-05 01:52:00,
2013-02-04 20:01:00,35.0,28.0,29.95,NNW,328,6.0,14.0,75,0.00,,,0.02,,2013-02-05 02:01:00,
2013-02-04 20:11:00,35.0,28.0,29.95,NNW,328,6.0,14.0,75,0.00,,,0.02,,2013-02-05 02:11:00,
2013-02-04 20:22:00,34.0,27.0,29.96,NNW,327,5.0,15.0,76,0.00,,,0.02,,2013-02-05 02:22:00,
2013-02-04 20:32:00,33.0,27.0,29.96,NW,304,6.0,11.0,78,0.00,,,0.02,,2013-02-05 02:32:00,
2013-02-04 20:42:00,33.0,27.0,29.96,NW,304,6.0,11.0,78,0.00,,,0.02,,2013-02-05 02:42:00,
2013-02-04 20:52:00,32.0,27.0,29.97,NE,48,3.0,10.0,80,0.00,,,0.02,,2013-02-05 02:52:00,
2013-02-04 21:02:00,32.0,27.0,29.98,North,5,4.0,10.0,81,0.00,,,0.02,,2013-02-05 03:02:00,
2013-02-04 21:11:00,32.0,27.0,29.98,North,5,4.0,10.0,81,0.00,,,0.02,,2013-02-05 03:11:00,
2013-02-04 21:21:00,31.0,26.0,29.99,NNW,329,4.0,10.0,82,0.00,,,0.02,,2013-02-05 03:21:00,
2013-02-04 21:32:00,31.0,26.0,30.01,NNW,336,4.0,6.0,83,0.00,,,0.02,,2013-02-05 03:32:00,
2013-02-04 21:42:00,31.0,26.0,30.01,NNW,336,4.0,6.0,83,0.00,,,0.02,,2013-02-05 03:42:00,
2013-02-04 21:52:00,31.0,26.0,30.00,North,360,2.0,7.0,83,0.00,,,0.02,,2013-02-05 03:52:00,
2013-02-04 22:01:00,31.0,26.0,29.98,NW,325,1.0,7.0,83,0.00,,,0.02,,2013-02-05 04:01:00,
2013-02-04 22:11:00,31.0,26.0,29.98,NW,325,1.0,7.0,83,0.00,,,0.02,,2013-02-05 04:11:00,
2013-02-04 22:21:00,30.0,25.0,29.99,North,5,2.0,5.0,83,0.00,,,0.02,,2013-02-05 04:21:00,
2013-02-04 22:32:00,30.0,25.0,29.99,NNW,346,3.0,7.0,83,0.00,,,0.02,,2013-02-05 04:32:00,
2013-02-04 22:42:00,30.0,25.0,29.99,NNW,346,3.0,7.0,83,0.00,,,0.02,,2013-02-05 04:42:00,
2013-02-04 22:52:00,30.0,26.0,29.99,NNW,346,1.0,5.0,84,0.00,,,0.02,,2013-02-05 04:52:00,
2013-02-04 23:02:00,30.0,25.0,29.98,NNE,13,1.0,4.0,83,0.00,,,0.02,,2013-02-05 05:02:00,
2013-02-04 23:11:00,30.0,25.0,29.98,NNE,13,1.0,4.0,83,0.00,,,0.02,,2013-02-05 05:11:00,
2013-02-04 23:21:00,30.0,25.0,29.99,NNE,32,0.0,3.0,83,0.00,,,0.02,,2013-02-05 05:21:00,
2013-02-04 23:32:00,30.0,26.0,29.98,NNE,28,1.0,3.0,84,0.00,,,0.02,,2013-02-05 05:32:00,
2013-02-04 23:42:00,30.0,26.0,29.98,NNE,28,1.0,3.0,84,0.00,,,0.02,,2013-02-05 05:42:00,
2013-02-04 23:52:00,30.0,26.0,30.00,NNW,342,2.0,5.0,84,0.00,,,0.02,,2013-02-05 05:52:00,